Terminal Aerodrome Forecast
Issued by NWS Jackson, MS

Home | Current Version | Previous Version | Text Only | Print | Product List | Glossary On
Versions: 1 2 3 4 5 6 7 8 9 10 11 12 13 14 15 16 17 18 19 20
052
FTUS44 KJAN 031120
TAFMEI
TAF
KMEI 031120Z 0312/0412 00000KT P6SM SCT025 OVC035
     FM031400 36006KT P6SM OVC015
     FM031800 36006KT P6SM SCT015 OVC025
     FM032200 34007KT P6SM OVC050
     FM041000 31006KT P6SM SCT250=

USA.gov is the U.S. government's official web portal to all federal, state and local government web resources and services.